Time;durP1;ratioP1;P1;durP2;ratioP2;P2;SDS_P1;SDS_P2;PMS_P1;PMS_P2;Temp;Humidity;BMP_temperature;BMP_pressure;BME280_temperature;BME280_humidity;BME280_pressure;Samples;Min_cycle;Max_cycle;Signal;HPM_P1;HPM_P2
2021/01/04 00:01:13;;;;;;;18.27;12.05;;;3.40;99.90;;;;;;4994180;28;20502;-92
2021/01/04 00:04:18;;;;;;;15.23;10.75;;;3.30;99.90;;;;;;4993732;28;20038;-93
2021/01/04 00:07:05;;;;;;;15.60;10.10;;;3.40;99.90;;;;;;5046785;28;20135;-93
2021/01/04 00:13:21;;;;;;;17.30;10.75;;;3.30;99.90;;;;;;5013892;28;20036;-91
2021/01/04 00:19:37;;;;;;;17.73;11.20;;;3.40;99.90;;;;;;5050084;28;20488;-92
2021/01/04 00:23:00;;;;;;;16.52;11.55;;;3.40;99.90;;;;;;5007369;28;20037;-92
2021/01/04 00:26:09;;;;;;;17.52;11.32;;;3.40;99.90;;;;;;4990609;28;20511;-91
2021/01/04 00:28:46;;;;;;;18.48;12.45;;;3.40;99.90;;;;;;4967535;28;20034;-91
2021/01/04 00:31:15;;;;;;;19.33;13.52;;;3.40;99.90;;;;;;4981941;28;20509;-90
2021/01/04 00:34:03;;;;;;;17.60;11.75;;;3.40;99.90;;;;;;4994346;28;20042;-88
2021/01/04 00:40:17;;;;;;;19.95;12.80;;;3.40;99.90;;;;;;5006898;28;20045;-92
2021/01/04 00:42:55;;;;;;;19.35;12.25;;;3.40;99.90;;;;;;4994256;28;20030;-90
2021/01/04 00:45:46;;;;;;;17.27;11.45;;;3.40;99.90;;;;;;4997867;28;20038;-90
2021/01/04 00:48:47;;;;;;;19.27;12.73;;;3.50;99.90;;;;;;5007554;28;20052;-90
2021/01/04 00:51:25;;;;;;;17.02;11.48;;;3.50;99.90;;;;;;5058143;28;20032;-90
2021/01/04 00:54:01;;;;;;;20.02;12.52;;;3.50;99.90;;;;;;5057980;28;20036;-91
2021/01/04 00:57:09;;;;;;;15.55;10.73;;;3.50;99.90;;;;;;5058752;28;20563;-90
2021/01/04 00:59:42;;;;;;;17.92;11.85;;;3.50;99.90;;;;;;5056705;28;20044;-91
2021/01/04 01:02:54;;;;;;;14.90;11.02;;;3.50;99.90;;;;;;5074456;28;20037;-89
2021/01/04 01:06:11;;;;;;;18.02;10.90;;;3.50;99.90;;;;;;5038436;28;20056;-92
2021/01/04 01:08:46;;;;;;;18.15;11.43;;;3.50;99.90;;;;;;5019802;28;20036;-91
2021/01/04 01:11:23;;;;;;;18.45;11.65;;;3.50;99.90;;;;;;5055654;28;20044;-92
2021/01/04 01:14:18;;;;;;;16.65;11.25;;;3.50;99.90;;;;;;5071257;28;20028;-91
2021/01/04 01:17:04;;;;;;;18.10;11.45;;;3.50;99.90;;;;;;5075023;28;20044;-90
2021/01/04 01:19:50;;;;;;;17.52;11.18;;;3.50;99.90;;;;;;5075021;28;20080;-89
2021/01/04 01:22:36;;;;;;;16.20;10.82;;;3.50;99.90;;;;;;5075314;28;20028;-92
2021/01/04 01:25:14;;;;;;;15.43;10.02;;;3.50;99.90;;;;;;5056912;28;20488;-90
2021/01/04 01:28:09;;;;;;;14.68;10.00;;;3.50;99.90;;;;;;5056056;28;20037;-90
2021/01/04 01:31:11;;;;;;;15.77;11.00;;;3.50;99.90;;;;;;5038554;28;20400;-90
2021/01/04 01:33:59;;;;;;;17.20;11.55;;;3.50;99.90;;;;;;5039538;28;20465;-90
2021/01/04 01:37:04;;;;;;;14.60;10.68;;;3.50;99.90;;;;;;5038999;28;20033;-90
2021/01/04 01:39:56;;;;;;;14.80;10.07;;;3.50;99.90;;;;;;5057076;28;20037;-91
2021/01/04 01:42:41;;;;;;;16.42;11.48;;;3.50;99.90;;;;;;5039530;28;20068;-91
2021/01/04 01:45:22;;;;;;;14.35;10.07;;;3.40;99.90;;;;;;5039200;28;20151;-90
2021/01/04 01:48:03;;;;;;;13.52;9.63;;;3.40;99.90;;;;;;5021861;28;20041;-91
2021/01/04 01:50:50;;;;;;;14.60;10.43;;;3.40;99.90;;;;;;5019279;28;20482;-87
2021/01/04 01:54:03;;;;;;;14.18;9.65;;;3.40;99.90;;;;;;5018480;28;20065;-91
2021/01/04 01:56:45;;;;;;;16.40;11.30;;;3.40;99.90;;;;;;5001548;28;20097;-90
2021/01/04 01:59:43;;;;;;;16.60;10.98;;;3.40;99.90;;;;;;5030238;28;20085;-90
2021/01/04 02:02:32;;;;;;;14.48;9.85;;;3.40;99.90;;;;;;5037861;28;20033;-90
2021/01/04 02:05:31;;;;;;;14.75;10.38;;;3.40;99.90;;;;;;5038373;28;20049;-90
2021/01/04 02:08:03;;;;;;;13.20;9.60;;;3.30;99.90;;;;;;5042421;28;20358;-91
2021/01/04 02:10:42;;;;;;;15.07;9.95;;;3.40;99.90;;;;;;5057783;28;20067;-90
2021/01/04 02:13:36;;;;;;;14.18;9.63;;;3.40;99.90;;;;;;5066788;28;20040;-90
2021/01/04 02:16:25;;;;;;;16.00;10.05;;;3.40;99.90;;;;;;5034927;28;20042;-90
2021/01/04 02:19:05;;;;;;;13.52;9.50;;;3.40;99.90;;;;;;5054245;28;20048;-89
2021/01/04 02:22:07;;;;;;;11.93;9.05;;;3.40;99.90;;;;;;5058029;28;20040;-89
2021/01/04 02:24:35;;;;;;;11.65;8.02;;;3.40;99.90;;;;;;5042111;28;20044;-90
2021/01/04 02:27:28;;;;;;;12.13;8.68;;;3.40;99.90;;;;;;5037936;28;20036;-90
2021/01/04 02:30:08;;;;;;;12.15;8.73;;;3.40;99.90;;;;;;5037965;28;20036;-91
2021/01/04 02:32:38;;;;;;;11.63;7.97;;;3.40;99.90;;;;;;5055508;28;20025;-90
2021/01/04 02:35:05;;;;;;;12.43;9.07;;;3.30;99.90;;;;;;5021163;28;20045;-89
2021/01/04 02:37:36;;;;;;;12.38;8.52;;;3.40;99.90;;;;;;5037679;28;20039;-91
2021/01/04 02:40:09;;;;;;;13.07;9.13;;;3.30;99.90;;;;;;5036588;28;20033;-90
2021/01/04 02:42:40;;;;;;;14.05;9.10;;;3.30;99.90;;;;;;5036418;28;20033;-90
2021/01/04 02:45:30;;;;;;;11.52;8.52;;;3.30;99.90;;;;;;5037907;28;20051;-90
2021/01/04 02:48:15;;;;;;;13.40;8.35;;;3.30;99.90;;;;;;5055774;28;20059;-89
2021/01/04 02:51:01;;;;;;;10.55;7.93;;;3.30;99.90;;;;;;5054760;28;20040;-90
2021/01/04 02:53:46;;;;;;;11.77;8.82;;;3.30;99.90;;;;;;5057490;28;20464;-90
2021/01/04 02:56:35;;;;;;;11.45;8.65;;;3.30;99.90;;;;;;5057505;28;20452;-90
2021/01/04 02:59:28;;;;;;;12.43;8.60;;;3.30;99.90;;;;;;5057855;28;20079;-90
2021/01/04 03:02:16;;;;;;;11.15;7.63;;;3.30;99.90;;;;;;5057418;28;20465;-90
2021/01/04 03:04:45;;;;;;;12.23;8.98;;;3.20;99.90;;;;;;5057763;28;20067;-90
2021/01/04 03:07:15;;;;;;;12.32;8.93;;;3.30;99.90;;;;;;5056924;28;20456;-89
2021/01/04 03:10:31;;;;;;;10.73;8.27;;;3.20;99.90;;;;;;5075018;28;20036;-89
2021/01/04 03:13:23;;;;;;;9.70;7.38;;;3.20;99.90;;;;;;5067083;28;20051;-89
2021/01/04 03:16:11;;;;;;;11.18;7.97;;;3.20;99.90;;;;;;5057526;28;20028;-90
2021/01/04 03:18:49;;;;;;;12.13;7.60;;;3.20;99.90;;;;;;5056830;28;20554;-90
2021/01/04 03:21:16;;;;;;;11.98;9.27;;;3.20;99.90;;;;;;5056558;28;20040;-90
2021/01/04 03:23:51;;;;;;;9.82;7.32;;;3.20;99.90;;;;;;5057215;28;20487;-89
2021/01/04 03:26:25;;;;;;;11.80;8.02;;;3.20;99.90;;;;;;5056966;28;20121;-90
2021/01/04 03:28:51;;;;;;;10.88;8.38;;;3.10;99.90;;;;;;5057466;28;20063;-89
2021/01/04 03:31:25;;;;;;;12.02;8.68;;;3.20;99.90;;;;;;5057504;28;20029;-89
2021/01/04 03:33:51;;;;;;;11.43;7.55;;;3.10;99.90;;;;;;5039989;28;20136;-88
2021/01/04 03:36:18;;;;;;;11.38;8.23;;;3.10;99.90;;;;;;5056974;28;20068;-89
2021/01/04 03:38:49;;;;;;;12.50;8.35;;;3.10;99.90;;;;;;5057506;28;20056;-89
2021/01/04 03:41:22;;;;;;;10.95;8.65;;;3.10;99.90;;;;;;5074882;28;20032;-90
2021/01/04 03:43:50;;;;;;;10.88;7.95;;;3.10;99.90;;;;;;5056936;28;20033;-90
2021/01/04 03:50:29;;;;;;;10.85;8.38;;;3.10;99.90;;;;;;5076303;28;20103;-89
2021/01/04 03:52:55;;;;;;;9.32;7.13;;;3.10;99.90;;;;;;5083927;28;20056;-89
2021/01/04 03:55:21;;;;;;;10.02;7.40;;;3.10;99.90;;;;;;5069930;28;20082;-89
2021/01/04 03:57:47;;;;;;;10.75;8.63;;;3.10;99.90;;;;;;5078271;28;20052;-90
2021/01/04 04:00:17;;;;;;;10.02;7.97;;;3.10;99.90;;;;;;5077485;28;20068;-90
2021/01/04 04:02:45;;;;;;;11.63;8.27;;;3.10;99.90;;;;;;5069381;28;20060;-90
2021/01/04 04:05:13;;;;;;;12.00;8.48;;;3.10;99.90;;;;;;5057701;28;20048;-89
2021/01/04 04:07:43;;;;;;;9.30;7.45;;;3.10;99.90;;;;;;5057206;28;20086;-91
2021/01/04 04:10:14;;;;;;;11.05;8.18;;;3.00;99.90;;;;;;5057404;28;20037;-90
2021/01/04 04:12:40;;;;;;;11.10;8.05;;;3.00;99.90;;;;;;5056760;28;20037;-90
2021/01/04 04:15:10;;;;;;;10.32;7.82;;;3.00;99.90;;;;;;5057039;28;20388;-89
2021/01/04 04:17:37;;;;;;;11.57;7.35;;;3.00;99.90;;;;;;5058157;28;20028;-89
2021/01/04 04:20:05;;;;;;;10.80;7.05;;;3.00;99.90;;;;;;5060511;28;20029;-89
2021/01/04 04:22:31;;;;;;;10.23;7.95;;;3.00;99.90;;;;;;5078370;28;20040;-89
2021/01/04 04:24:56;;;;;;;8.98;6.63;;;3.10;99.90;;;;;;5059882;28;20472;-89
2021/01/04 04:27:22;;;;;;;9.55;6.95;;;3.00;99.90;;;;;;5060123;28;20031;-89
2021/01/04 04:29:48;;;;;;;10.13;6.60;;;3.00;99.90;;;;;;5060299;28;20033;-90
2021/01/04 04:32:24;;;;;;;10.68;7.63;;;3.00;99.90;;;;;;5059228;28;20040;-90
2021/01/04 04:34:50;;;;;;;9.55;6.50;;;3.00;99.90;;;;;;5060501;28;20040;-89
2021/01/04 04:37:18;;;;;;;9.98;6.60;;;3.00;99.90;;;;;;5065717;28;20027;-89
2021/01/04 04:39:44;;;;;;;10.63;6.75;;;3.10;99.90;;;;;;5061035;28;20035;-88
2021/01/04 04:42:14;;;;;;;9.90;7.00;;;3.10;99.90;;;;;;5059445;28;20090;-88
2021/01/04 04:45:03;;;;;;;11.02;7.43;;;3.10;99.90;;;;;;5060193;28;20107;-90
2021/01/04 04:47:57;;;;;;;9.20;6.68;;;3.00;99.90;;;;;;5078101;28;20040;-89
2021/01/04 04:50:51;;;;;;;9.88;6.53;;;3.10;99.90;;;;;;5060115;28;20032;-89
2021/01/04 04:53:39;;;;;;;10.57;6.88;;;3.10;99.90;;;;;;5060040;28;20089;-89
2021/01/04 04:56:23;;;;;;;12.68;7.72;;;3.10;99.90;;;;;;5059966;28;20066;-90
2021/01/04 04:58:49;;;;;;;10.25;6.82;;;3.10;99.90;;;;;;5059605;28;20040;-89
2021/01/04 05:01:40;;;;;;;10.32;6.72;;;3.10;99.90;;;;;;5059934;28;20098;-89
2021/01/04 05:04:11;;;;;;;12.02;7.72;;;3.10;99.90;;;;;;5059615;28;20032;-90
2021/01/04 05:07:00;;;;;;;9.80;6.63;;;3.10;99.90;;;;;;5059916;28;20032;-90
2021/01/04 05:09:46;;;;;;;9.10;6.65;;;3.10;99.90;;;;;;5059870;28;20127;-89
2021/01/04 05:12:18;;;;;;;8.88;6.32;;;3.10;99.90;;;;;;5059834;28;20086;-89
2021/01/04 05:15:02;;;;;;;10.10;6.40;;;3.20;99.90;;;;;;5059713;28;20468;-91
2021/01/04 05:17:30;;;;;;;;;;;3.20;99.90;;;;;;5060096;28;20071;-89
2021/01/04 05:20:15;;;;;;;9.40;6.95;;;3.20;99.90;;;;;;5059173;28;19948;-89
2021/01/04 05:23:22;;;;;;;12.35;8.88;;;3.20;99.90;;;;;;5059070;28;20037;-90
2021/01/04 05:25:51;;;;;;;12.20;8.95;;;3.20;99.90;;;;;;5040683;28;20052;-89
2021/01/04 05:28:45;;;;;;;12.43;9.15;;;3.20;99.90;;;;;;5058979;28;20036;-90
2021/01/04 05:31:47;;;;;;;11.63;8.80;;;3.20;99.90;;;;;;5076834;28;20032;-90
2021/01/04 05:34:22;;;;;;;12.90;8.93;;;3.20;99.90;;;;;;5076872;28;20078;-90
2021/01/04 05:37:07;;;;;;;12.80;8.48;;;3.20;99.90;;;;;;5058552;28;20036;-90
2021/01/04 05:40:20;;;;;;;11.60;8.15;;;3.20;99.90;;;;;;5076715;28;20033;-91
2021/01/04 05:43:21;;;;;;;12.17;8.70;;;3.20;99.90;;;;;;5021453;28;20065;-91
2021/01/04 05:46:13;;;;;;;13.10;8.02;;;3.20;99.90;;;;;;5075820;28;20116;-90
2021/01/04 05:49:01;;;;;;;11.93;7.95;;;3.20;99.90;;;;;;5038912;28;20485;-91
2021/01/04 05:51:33;;;;;;;12.48;8.60;;;3.20;99.90;;;;;;5033855;28;20155;-90
2021/01/04 05:54:02;;;;;;;10.20;7.63;;;3.20;99.90;;;;;;5055985;28;20037;-91
2021/01/04 05:56:33;;;;;;;9.73;6.53;;;3.20;99.90;;;;;;5037237;28;20123;-90
2021/01/04 05:59:13;;;;;;;11.40;8.18;;;3.20;99.90;;;;;;5037938;28;20059;-91
2021/01/04 06:01:44;;;;;;;12.23;8.30;;;3.20;99.90;;;;;;5055443;28;20037;-90
2021/01/04 06:04:23;;;;;;;11.20;7.97;;;3.30;99.90;;;;;;5037844;28;20479;-90
2021/01/04 06:06:53;;;;;;;11.52;7.65;;;3.20;99.90;;;;;;5055621;28;20056;-90
2021/01/04 06:09:19;;;;;;;13.45;9.30;;;3.20;99.90;;;;;;5037883;28;20036;-91
2021/01/04 06:11:55;;;;;;;12.35;7.82;;;3.20;99.90;;;;;;5037759;28;20033;-91
2021/01/04 06:14:30;;;;;;;11.82;8.13;;;3.20;99.90;;;;;;5057283;28;20120;-91
2021/01/04 06:17:05;;;;;;;10.07;7.45;;;3.20;99.90;;;;;;5024514;28;20033;-92
2021/01/04 06:19:39;;;;;;;12.20;7.97;;;3.20;99.90;;;;;;5036980;28;20036;-92
2021/01/04 06:22:16;;;;;;;11.68;7.50;;;3.20;99.90;;;;;;5021770;28;20131;-92
2021/01/04 06:24:45;;;;;;;13.00;8.38;;;3.20;99.90;;;;;;5037774;28;20052;-93
2021/01/04 06:27:20;;;;;;;10.82;6.97;;;3.30;99.90;;;;;;5037331;28;20029;-92
2021/01/04 06:29:55;;;;;;;10.68;6.78;;;3.20;99.90;;;;;;5056960;28;20029;-93
2021/01/04 06:32:21;;;;;;;11.55;7.15;;;3.30;99.90;;;;;;5038414;28;20059;-91
2021/01/04 06:35:21;;;;;;;13.18;8.70;;;3.20;99.90;;;;;;5037961;28;20033;-91
2021/01/04 06:38:09;;;;;;;11.13;7.28;;;3.20;99.90;;;;;;5021225;28;20378;-92
2021/01/04 06:40:50;;;;;;;12.40;8.07;;;3.20;99.90;;;;;;5037125;28;20495;-91
2021/01/04 06:43:30;;;;;;;10.88;7.57;;;3.20;99.90;;;;;;5037106;28;20121;-91
2021/01/04 06:46:19;;;;;;;11.70;7.88;;;3.30;99.90;;;;;;5038385;28;20480;-91
2021/01/04 06:49:02;;;;;;;14.18;8.27;;;3.20;99.90;;;;;;5058025;28;20043;-90
2021/01/04 06:52:21;;;;;;;10.63;7.53;;;3.20;99.90;;;;;;5057639;28;20079;-89
2021/01/04 06:55:27;;;;;;;12.02;8.13;;;3.20;99.90;;;;;;5073431;28;20852;-91
2021/01/04 06:58:17;;;;;;;13.32;7.60;;;3.20;99.90;;;;;;5037124;28;20033;-90
2021/01/04 07:01:15;;;;;;;11.68;7.15;;;3.30;99.90;;;;;;5037545;28;20036;-91
2021/01/04 07:03:53;;;;;;;12.85;8.38;;;3.30;99.90;;;;;;5054600;28;20052;-90
2021/01/04 07:06:52;;;;;;;15.68;9.98;;;3.30;99.90;;;;;;5038227;28;20033;-90
2021/01/04 07:09:33;;;;;;;14.68;10.20;;;3.20;99.90;;;;;;5037005;28;20047;-89
2021/01/04 07:12:48;;;;;;;16.90;10.95;;;3.30;99.90;;;;;;5043265;28;20031;-89
2021/01/04 07:15:32;;;;;;;18.00;12.23;;;3.30;99.90;;;;;;5015495;28;20060;-89
2021/01/04 07:18:27;;;;;;;17.65;12.38;;;3.20;99.90;;;;;;5058464;28;20033;-90
2021/01/04 07:21:09;;;;;;;18.85;12.63;;;3.20;99.90;;;;;;5058549;28;20040;-90
2021/01/04 07:23:40;;;;;;;18.33;13.25;;;3.20;99.90;;;;;;5041738;28;20127;-89
2021/01/04 07:26:39;;;;;;;18.92;13.38;;;3.20;99.90;;;;;;5074549;28;20033;-90
2021/01/04 07:29:55;;;;;;;18.65;12.90;;;3.20;99.90;;;;;;5057748;28;20093;-90
2021/01/04 07:33:24;;;;;;;17.98;12.05;;;3.20;99.90;;;;;;5056771;28;20032;-91
2021/01/04 07:37:07;;;;;;;18.05;12.95;;;3.30;99.90;;;;;;5049665;28;20123;-90
2021/01/04 07:40:20;;;;;;;21.35;13.50;;;3.30;99.90;;;;;;5072639;28;20039;-91
2021/01/04 07:44:04;;;;;;;16.90;11.98;;;3.30;99.90;;;;;;5039701;28;20032;-89
2021/01/04 07:46:54;;;;;;;20.58;12.65;;;3.20;99.90;;;;;;4957025;28;20055;-90
2021/01/04 07:50:22;;;;;;;16.95;11.35;;;3.20;99.90;;;;;;5054902;28;20037;-89
2021/01/04 07:53:20;;;;;;;;;;;;;;;;;;;;;
2021/01/04 07:56:46;;;;;;;15.93;11.55;;;3.30;99.90;;;;;;5058297;28;20036;-90
2021/01/04 07:59:55;;;;;;;18.05;12.02;;;3.20;99.90;;;;;;5057778;28;20112;-89
2021/01/04 08:02:42;;;;;;;16.63;11.00;;;3.30;99.90;;;;;;5041411;28;20037;-89
2021/01/04 08:05:51;;;;;;;;;;;3.20;99.90;;;;;;5059937;28;20037;-90
2021/01/04 08:09:21;;;;;;;;;;;;;;;;;;;;;
2021/01/04 08:12:29;;;;;;;18.33;11.05;;;3.30;99.90;;;;;;5035031;28;20108;-89
2021/01/04 08:15:21;;;;;;;15.35;10.57;;;3.30;99.90;;;;;;5025841;28;20114;-88
2021/01/04 08:18:03;;;;;;;17.05;11.63;;;3.30;99.90;;;;;;5007880;28;20045;-89
2021/01/04 08:20:39;;;;;;;16.38;11.05;;;3.30;99.90;;;;;;5001166;28;20053;-91
2021/01/04 08:23:38;;;;;;;17.90;10.95;;;3.30;99.90;;;;;;5049395;28;20033;-90
2021/01/04 08:26:14;;;;;;;15.63;10.40;;;3.30;99.90;;;;;;5052655;28;20040;-87
2021/01/04 08:29:12;;;;;;;15.18;10.95;;;3.30;99.90;;;;;;5063852;28;20022;-87
2021/01/04 08:31:44;;;;;;;18.98;11.10;;;3.30;99.90;;;;;;5064191;28;20089;-91
2021/01/04 08:34:26;;;;;;;15.77;10.13;;;3.40;99.90;;;;;;5043222;28;20113;-87
2021/01/04 08:37:44;;;;;;;16.60;10.57;;;3.30;99.90;;;;;;5022436;28;20153;-89
2021/01/04 08:40:29;;;;;;;16.73;10.30;;;3.40;99.90;;;;;;5008793;28;20076;-88
2021/01/04 08:43:08;;;;;;;14.52;9.38;;;3.40;99.90;;;;;;5031704;28;20120;-88
2021/01/04 08:45:49;;;;;;;17.15;11.45;;;3.40;99.90;;;;;;5041497;28;20044;-89
2021/01/04 08:48:37;;;;;;;16.42;10.57;;;3.40;99.90;;;;;;5040848;28;20041;-89
2021/01/04 08:51:28;;;;;;;17.35;10.88;;;3.40;99.90;;;;;;5056418;28;20063;-88
2021/01/04 08:54:20;;;;;;;16.20;11.48;;;3.40;99.90;;;;;;5053895;28;20039;-88
2021/01/04 08:57:20;;;;;;;16.48;11.20;;;3.40;99.90;;;;;;5075362;28;20086;-88
2021/01/04 09:00:24;;;;;;;16.73;11.10;;;3.40;99.90;;;;;;5056867;28;20033;-88
2021/01/04 09:02:56;;;;;;;15.52;10.65;;;3.40;99.90;;;;;;4977321;28;20039;-90
2021/01/04 09:06:09;;;;;;;15.35;10.35;;;3.50;99.90;;;;;;4963979;28;20047;-89
2021/01/04 09:08:39;;;;;;;13.90;9.60;;;3.40;99.90;;;;;;4923120;29;20044;-88
2021/01/04 09:11:11;;;;;;;14.98;10.57;;;3.50;99.90;;;;;;4958990;28;20034;-88
2021/01/04 09:14:38;;;;;;;17.30;10.47;;;3.50;99.90;;;;;;5021466;28;20029;-87
2021/01/04 09:16:59;;;;;;;;;;;;;;;;;;;;;
2021/01/04 09:19:35;;;;;;;17.55;12.75;;;3.40;99.90;;;;;;5057225;28;20029;-90
2021/01/04 09:22:31;;;;;;;16.42;10.50;;;3.40;99.90;;;;;;5039342;28;20029;-89
2021/01/04 09:25:35;;;;;;;15.98;10.55;;;3.40;99.90;;;;;;5043581;28;20045;-89
2021/01/04 09:28:43;;;;;;;;;;;;;;;;;;;;;
2021/01/04 09:31:27;;;;;;;14.80;9.82;;;3.40;99.90;;;;;;5057968;28;20047;-89
2021/01/04 09:34:03;;;;;;;;;;;3.40;99.90;;;;;;5043497;28;20033;-89
2021/01/04 09:36:45;;;;;;;17.02;10.68;;;3.50;99.90;;;;;;5039792;28;19916;-89
2021/01/04 09:39:15;;;;;;;17.50;10.77;;;3.40;99.90;;;;;;5052937;28;20048;-87
2021/01/04 09:42:24;;;;;;;17.33;10.77;;;3.40;99.90;;;;;;5056616;28;20033;-89
2021/01/04 09:45:20;;;;;;;15.02;9.02;;;3.50;99.90;;;;;;5027802;28;20049;-90
2021/01/04 09:48:06;;;;;;;18.35;10.95;;;3.50;99.90;;;;;;5062672;28;20489;-89
2021/01/04 09:51:21;;;;;;;;;;;;;;;;;;;;;
2021/01/04 09:57:12;;;;;;;;;;;;;;;;;;;;;
2021/01/04 10:00:05;;;;;;;16.83;9.88;;;3.70;99.90;;;;;;5077637;28;20024;-89
2021/01/04 10:03:29;;;;;;;;;;;;;;;;;;;;;
2021/01/04 10:06:21;;;;;;;15.98;9.45;;;3.70;99.90;;;;;;5063498;28;20104;-89
2021/01/04 10:08:49;;;;;;;21.65;12.00;;;3.80;99.90;;;;;;5175297;22;20107;-87
2021/01/04 10:11:21;;;;;;;17.23;10.43;;;3.70;99.90;;;;;;5045126;28;20093;-89
2021/01/04 10:13:47;;;;;;;16.05;10.95;;;3.80;99.90;;;;;;5027583;28;20064;-88
2021/01/04 10:16:21;;;;;;;16.80;11.40;;;3.80;99.90;;;;;;5027387;28;20041;-88
2021/01/04 10:18:54;;;;;;;14.73;9.20;;;3.80;99.90;;;;;;5026465;28;20132;-87
2021/01/04 10:21:28;;;;;;;13.43;9.32;;;3.80;99.90;;;;;;5024662;28;20034;-88
2021/01/04 10:23:59;;;;;;;14.95;10.63;;;3.80;99.90;;;;;;5022318;28;20029;-89
2021/01/04 10:26:28;;;;;;;14.55;9.75;;;3.80;99.90;;;;;;5021643;28;20103;-88
2021/01/04 10:28:54;;;;;;;15.43;10.10;;;3.90;99.90;;;;;;5022699;28;20392;-88
2021/01/04 10:31:19;;;;;;;14.43;9.48;;;3.90;99.90;;;;;;5023255;28;20040;-87
2021/01/04 10:33:46;;;;;;;16.90;10.13;;;3.90;99.90;;;;;;5017544;28;20041;-88
2021/01/04 10:36:14;;;;;;;12.88;9.23;;;3.90;99.90;;;;;;5017377;28;20502;-88
2021/01/04 10:38:58;;;;;;;12.75;9.07;;;3.90;99.90;;;;;;5017507;28;20048;-89
2021/01/04 10:41:28;;;;;;;13.50;8.85;;;3.90;99.90;;;;;;5018793;28;20057;-89
2021/01/04 10:44:14;;;;;;;13.43;9.02;;;3.90;99.90;;;;;;5017767;28;20074;-90
2021/01/04 10:46:55;;;;;;;14.98;8.95;;;3.90;99.90;;;;;;5016473;28;20067;-88
2021/01/04 10:49:27;;;;;;;15.77;9.77;;;3.90;99.90;;;;;;5035571;28;20057;-86
2021/01/04 10:51:55;;;;;;;16.35;10.00;;;3.80;99.90;;;;;;5017960;28;20029;-89
2021/01/04 10:54:42;;;;;;;14.95;9.70;;;3.80;99.90;;;;;;5014936;28;20052;-87
2021/01/04 10:57:33;;;;;;;17.90;10.02;;;3.80;99.90;;;;;;5032897;28;20033;-91
2021/01/04 11:00:08;;;;;;;14.75;9.13;;;3.80;99.90;;;;;;5013070;28;20472;-86
2021/01/04 11:02:47;;;;;;;13.23;8.60;;;3.80;99.90;;;;;;5015205;28;20045;-86
2021/01/04 11:05:15;;;;;;;14.25;9.23;;;3.70;99.90;;;;;;5015435;28;20128;-86
2021/01/04 11:07:41;;;;;;;15.30;9.40;;;3.80;99.90;;;;;;5016680;28;20045;-88
2021/01/04 11:10:08;;;;;;;12.98;8.30;;;3.70;99.90;;;;;;5047502;28;20594;-85
2021/01/04 11:12:48;;;;;;;11.57;7.72;;;3.70;99.90;;;;;;5036325;28;20475;-86
2021/01/04 11:15:35;;;;;;;12.45;7.75;;;3.70;99.90;;;;;;5040355;28;20041;-87
2021/01/04 11:18:11;;;;;;;14.30;9.23;;;3.70;99.90;;;;;;5074179;28;20033;-88
2021/01/04 11:20:40;;;;;;;13.82;9.43;;;3.70;99.90;;;;;;5057106;28;20029;-87
2021/01/04 11:23:14;;;;;;;10.75;7.97;;;3.70;99.90;;;;;;5054279;28;20044;-86
2021/01/04 11:25:42;;;;;;;15.02;8.65;;;3.70;99.90;;;;;;5048373;28;20041;-85
2021/01/04 11:28:08;;;;;;;12.77;8.30;;;3.70;99.90;;;;;;5046018;28;20029;-84
2021/01/04 11:30:33;;;;;;;14.55;8.30;;;3.70;99.90;;;;;;5038772;28;20037;-84
2021/01/04 11:33:00;;;;;;;12.55;8.63;;;3.70;99.90;;;;;;5052631;28;20045;-84
2021/01/04 11:35:30;;;;;;;12.23;8.43;;;3.70;99.90;;;;;;5034094;28;20078;-86
2021/01/04 11:37:57;;;;;;;14.70;8.77;;;3.70;99.90;;;;;;5033620;28;20071;-85
2021/01/04 11:40:23;;;;;;;10.32;7.28;;;3.70;99.90;;;;;;5042192;28;20070;-85
2021/01/04 11:42:49;;;;;;;10.88;7.63;;;3.70;99.90;;;;;;5051597;28;20484;-84
2021/01/04 11:45:18;;;;;;;11.23;7.80;;;3.70;99.90;;;;;;5051839;28;20052;-85
2021/01/04 11:47:44;;;;;;;10.80;7.13;;;3.80;99.90;;;;;;5034171;28;20036;-85
2021/01/04 11:50:11;;;;;;;10.10;6.90;;;3.80;99.90;;;;;;5035940;28;20033;-88
2021/01/04 11:52:37;;;;;;;11.30;6.75;;;3.80;99.90;;;;;;5038285;28;20033;-85
2021/01/04 11:55:07;;;;;;;11.15;7.15;;;3.80;99.90;;;;;;5053002;28;20029;-84
2021/01/04 11:57:33;;;;;;;12.40;7.47;;;3.80;99.90;;;;;;5052220;28;20486;-84
2021/01/04 11:59:58;;;;;;;10.40;7.28;;;3.80;99.90;;;;;;5051687;28;20048;-86
2021/01/04 12:02:24;;;;;;;10.23;7.35;;;3.80;99.90;;;;;;5034475;28;20471;-85
2021/01/04 12:04:50;;;;;;;9.52;6.45;;;3.90;99.90;;;;;;5034149;28;20040;-85
2021/01/04 12:07:15;;;;;;;12.77;8.10;;;3.80;99.90;;;;;;5034499;28;20060;-85
2021/01/04 12:09:41;;;;;;;12.77;7.88;;;3.80;99.90;;;;;;5051858;28;20055;-86
2021/01/04 12:12:09;;;;;;;11.13;7.53;;;3.80;99.90;;;;;;5034504;28;20037;-86
2021/01/04 12:14:35;;;;;;;10.95;8.10;;;3.80;99.90;;;;;;5052233;28;20652;-86
2021/01/04 12:17:04;;;;;;;10.50;8.00;;;3.80;99.90;;;;;;5035666;28;20025;-85
2021/01/04 12:19:30;;;;;;;10.63;7.25;;;3.80;99.90;;;;;;5052052;28;20491;-86
2021/01/04 12:22:15;;;;;;;11.55;7.70;;;3.70;99.90;;;;;;5034379;28;20564;-86
2021/01/04 12:24:47;;;;;;;12.05;8.10;;;3.80;99.90;;;;;;5050918;28;20414;-86
2021/01/04 12:27:14;;;;;;;10.98;6.72;;;3.70;99.90;;;;;;5052133;28;20083;-85
2021/01/04 12:29:47;;;;;;;10.48;7.07;;;3.70;99.90;;;;;;5052482;28;20029;-85
2021/01/04 12:32:15;;;;;;;10.63;6.93;;;3.70;99.90;;;;;;5034860;28;20153;-85
2021/01/04 12:34:41;;;;;;;11.20;7.15;;;3.70;99.90;;;;;;5052761;28;20117;-85
2021/01/04 12:37:07;;;;;;;8.93;6.35;;;3.70;99.90;;;;;;5052192;28;20095;-87
2021/01/04 12:39:33;;;;;;;13.18;7.43;;;3.70;99.90;;;;;;5055205;28;20476;-86
2021/01/04 12:41:58;;;;;;;10.18;7.03;;;3.80;99.90;;;;;;5056340;28;20043;-85
2021/01/04 12:44:24;;;;;;;10.93;6.70;;;3.70;99.90;;;;;;5043910;28;20033;-85
2021/01/04 12:46:51;;;;;;;8.65;6.50;;;3.70;99.90;;;;;;5062003;28;20106;-85
2021/01/04 12:49:23;;;;;;;11.27;7.15;;;3.80;99.90;;;;;;5063357;28;20099;-87
2021/01/04 12:51:55;;;;;;;10.77;6.30;;;3.80;99.90;;;;;;5052785;28;20041;-88
2021/01/04 12:54:26;;;;;;;8.40;6.18;;;3.80;99.90;;;;;;5062380;28;20039;-87
2021/01/04 12:56:55;;;;;;;8.82;5.88;;;3.80;99.90;;;;;;5048834;28;20021;-89
2021/01/04 12:59:24;;;;;;;7.97;5.82;;;3.80;99.90;;;;;;5051476;28;20032;-87
2021/01/04 13:01:53;;;;;;;9.88;6.72;;;3.80;99.90;;;;;;5058917;28;20502;-85
2021/01/04 13:04:23;;;;;;;7.95;5.75;;;3.80;99.90;;;;;;5060721;28;20056;-85
2021/01/04 13:06:51;;;;;;;9.63;6.38;;;3.80;99.90;;;;;;5040322;28;20052;-87
2021/01/04 13:09:17;;;;;;;10.45;6.18;;;3.80;99.90;;;;;;5042327;28;20078;-86
2021/01/04 13:11:47;;;;;;;8.05;5.53;;;3.70;99.90;;;;;;5050955;28;20101;-86
2021/01/04 13:14:13;;;;;;;9.48;5.38;;;3.70;99.90;;;;;;5034466;28;20028;-86
2021/01/04 13:16:40;;;;;;;11.18;6.03;;;3.70;99.90;;;;;;5034954;28;20037;-85
2021/01/04 13:19:07;;;;;;;10.15;6.40;;;3.70;99.90;;;;;;5028064;28;20110;-86
2021/01/04 13:21:33;;;;;;;9.13;5.90;;;3.70;99.90;;;;;;5048717;28;20682;-86
2021/01/04 13:23:59;;;;;;;8.93;6.07;;;3.70;99.90;;;;;;5027889;28;20064;-83
2021/01/04 13:26:25;;;;;;;8.93;6.28;;;3.60;99.90;;;;;;5027716;28;20079;-85
2021/01/04 13:28:51;;;;;;;10.55;6.70;;;3.60;99.90;;;;;;5042770;28;20072;-85
2021/01/04 13:31:26;;;;;;;9.98;6.07;;;3.60;99.90;;;;;;5027049;28;20048;-86
2021/01/04 13:33:52;;;;;;;9.00;6.13;;;3.60;99.90;;;;;;5043943;28;20051;-88
2021/01/04 13:36:18;;;;;;;9.63;6.10;;;3.60;99.90;;;;;;5034226;28;20029;-89
2021/01/04 13:38:43;;;;;;;10.27;5.70;;;3.60;99.90;;;;;;5031608;28;20071;-87
2021/01/04 13:41:14;;;;;;;8.50;5.88;;;3.60;99.90;;;;;;5035473;28;20018;-89
2021/01/04 13:43:42;;;;;;;7.20;5.40;;;3.60;99.90;;;;;;5035667;28;20041;-89
2021/01/04 13:46:07;;;;;;;8.57;5.60;;;3.60;99.90;;;;;;5038436;28;20048;-85
2021/01/04 13:48:33;;;;;;;8.05;5.85;;;3.60;99.90;;;;;;5048263;28;20034;-85
2021/01/04 13:50:58;;;;;;;8.57;4.72;;;3.50;99.90;;;;;;5069326;28;20040;-90
2021/01/04 13:53:26;;;;;;;7.28;5.07;;;3.50;99.90;;;;;;5053433;28;20517;-89
2021/01/04 13:55:54;;;;;;;8.38;4.90;;;3.50;99.90;;;;;;5065848;28;20912;-87
2021/01/04 13:58:20;;;;;;;8.15;4.97;;;3.50;99.90;;;;;;5051575;28;20032;-86
2021/01/04 14:00:46;;;;;;;6.95;4.90;;;3.50;99.90;;;;;;5064768;28;20029;-85
2021/01/04 14:03:11;;;;;;;6.55;4.50;;;3.60;99.90;;;;;;5043713;28;20040;-88
2021/01/04 14:05:37;;;;;;;7.97;4.97;;;3.50;99.90;;;;;;5066703;28;20043;-88
2021/01/04 14:08:03;;;;;;;6.47;4.40;;;3.60;99.90;;;;;;5050639;28;20056;-87
2021/01/04 14:10:29;;;;;;;6.78;4.35;;;3.60;99.90;;;;;;5050583;28;20056;-87
2021/01/04 14:12:54;;;;;;;7.13;5.07;;;3.60;99.90;;;;;;5032470;28;20033;-88
2021/01/04 14:15:20;;;;;;;5.78;4.40;;;3.60;99.90;;;;;;5046635;28;20024;-88
2021/01/04 14:17:46;;;;;;;6.65;4.78;;;3.60;99.90;;;;;;5060596;28;20119;-86
2021/01/04 14:20:12;;;;;;;6.65;4.10;;;3.60;99.90;;;;;;5061038;28;20131;-86
2021/01/04 14:22:38;;;;;;;5.70;3.70;;;3.60;99.90;;;;;;5039908;28;20024;-89